createdAt,value
2017-07-12T00:00:55.520Z,2.03
2017-07-12T00:03:29.232Z,2.53
2017-07-12T00:06:02.926Z,2.13
2017-07-12T00:08:36.735Z,2.30
2017-07-12T00:11:11.123Z,2.10
2017-07-12T00:13:44.644Z,2.10
2017-07-12T00:16:18.447Z,2.43
2017-07-12T00:18:52.051Z,2.20
2017-07-12T00:21:25.647Z,2.27
2017-07-12T00:23:59.247Z,2.80
2017-07-12T00:26:32.928Z,2.27
2017-07-12T00:29:06.535Z,1.83
2017-07-12T00:31:40.155Z,2.03
2017-07-12T00:34:13.699Z,2.13
2017-07-12T00:36:48.171Z,2.40
2017-07-12T00:39:22.507Z,2.20
2017-07-12T00:41:56.399Z,1.90
2017-07-12T00:44:30.095Z,2.00
2017-07-12T00:47:03.698Z,2.50
2017-07-12T00:49:37.186Z,1.97
2017-07-12T00:52:11.700Z,2.20
2017-07-12T00:54:45.324Z,1.97
2017-07-12T00:57:19.027Z,2.07
2017-07-12T00:59:52.628Z,2.07
2017-07-12T01:02:27.127Z,2.90
2017-07-12T01:05:00.949Z,2.00
2017-07-12T01:07:34.559Z,2.30
2017-07-12T01:10:08.250Z,4.30
2017-07-12T01:12:42.677Z,2.30
2017-07-12T01:15:17.056Z,2.50
2017-07-12T01:17:50.807Z,3.00
2017-07-12T01:20:25.827Z,2.50
2017-07-12T01:22:59.527Z,2.60
2017-07-12T01:25:33.023Z,2.50
2017-07-12T01:28:06.935Z,2.80
2017-07-12T01:30:40.527Z,3.53
2017-07-12T01:33:14.422Z,3.47
2017-07-12T01:35:48.243Z,3.83
2017-07-12T01:38:21.759Z,4.60
2017-07-12T01:40:55.547Z,3.93
2017-07-12T01:43:29.318Z,3.93
2017-07-12T01:46:03.475Z,3.90
2017-07-12T01:48:37.955Z,4.10
2017-07-12T01:51:11.793Z,3.80
2017-07-12T01:53:45.387Z,4.30
2017-07-12T01:56:19.067Z,4.23
2017-07-12T01:58:52.903Z,4.30
2017-07-12T02:01:26.496Z,4.70
2017-07-12T02:04:00.193Z,4.33
2017-07-12T02:06:33.801Z,3.77
2017-07-12T02:09:07.598Z,4.17
2017-07-12T02:11:41.407Z,4.53
2017-07-12T02:14:15.098Z,5.10
2017-07-12T02:16:48.869Z,4.40
2017-07-12T02:19:22.519Z,6.10
2017-07-12T02:21:56.119Z,4.70
2017-07-12T02:24:30.534Z,3.90
2017-07-12T02:27:04.140Z,3.73
2017-07-12T02:29:38.560Z,3.90
2017-07-12T02:32:12.028Z,3.57
2017-07-12T02:34:45.858Z,3.23
2017-07-12T02:37:19.511Z,3.73
2017-07-12T02:39:53.080Z,3.87
2017-07-12T02:42:26.658Z,3.83
2017-07-12T02:45:00.298Z,3.40
2017-07-12T02:47:34.171Z,2.97
2017-07-12T02:50:07.727Z,3.40
2017-07-12T02:52:41.367Z,3.30
2017-07-12T02:55:14.972Z,2.97
2017-07-12T02:57:48.567Z,2.80
2017-07-12T03:00:22.266Z,2.87
2017-07-12T03:02:56.056Z,3.13
2017-07-12T03:05:30.591Z,3.20
2017-07-12T03:08:04.303Z,2.63
2017-07-12T03:10:37.900Z,3.60
2017-07-12T03:13:11.495Z,3.30
2017-07-12T03:15:45.199Z,3.10
2017-07-12T03:18:18.806Z,3.20
2017-07-12T03:20:52.604Z,2.87
2017-07-12T03:23:26.203Z,3.53
2017-07-12T03:25:59.907Z,3.33
2017-07-12T03:28:34.380Z,3.70
2017-07-12T03:31:08.238Z,2.70
2017-07-12T03:33:41.935Z,3.37
2017-07-12T03:36:15.636Z,3.30
2017-07-12T03:38:49.235Z,2.97
2017-07-12T03:41:23.051Z,3.27
2017-07-12T03:43:56.748Z,3.50
2017-07-12T03:46:30.551Z,3.33
2017-07-12T03:49:04.255Z,3.40
2017-07-12T03:51:37.762Z,3.73
2017-07-12T03:54:11.456Z,3.47
2017-07-12T03:56:45.159Z,3.60
2017-07-12T03:59:18.627Z,3.33
2017-07-12T04:01:52.255Z,3.47
2017-07-12T04:04:27.698Z,3.50
2017-07-12T04:07:01.611Z,3.57
2017-07-12T04:09:36.223Z,3.80
2017-07-12T04:12:09.903Z,4.20
2017-07-12T04:14:44.219Z,3.60
2017-07-12T04:17:18.771Z,3.37
2017-07-12T04:19:52.463Z,3.90
2017-07-12T04:22:26.259Z,3.40
2017-07-12T04:24:59.843Z,3.57
2017-07-12T04:27:34.191Z,3.57
2017-07-12T04:30:08.580Z,3.20
2017-07-12T04:32:42.215Z,3.70
2017-07-12T04:35:15.708Z,3.40
2017-07-12T04:37:49.377Z,3.63
2017-07-12T04:40:23.319Z,3.40
2017-07-12T04:42:57.024Z,3.37
2017-07-12T04:45:30.595Z,4.10
2017-07-12T04:48:04.328Z,3.67
2017-07-12T04:50:37.928Z,4.20
2017-07-12T04:53:11.529Z,3.60
2017-07-12T04:55:46.052Z,3.67
2017-07-12T04:58:19.747Z,4.03
2017-07-12T05:00:53.247Z,3.50
2017-07-12T05:03:26.951Z,4.03
2017-07-12T05:06:00.651Z,4.87
2017-07-12T05:08:34.791Z,4.50
2017-07-12T05:11:09.068Z,4.77
2017-07-12T05:13:42.888Z,5.00
2017-07-12T05:16:16.483Z,4.53
2017-07-12T05:18:50.804Z,4.20
2017-07-12T05:21:25.274Z,3.73
2017-07-12T05:23:58.806Z,4.70
2017-07-12T05:26:32.427Z,4.00
2017-07-12T05:29:06.736Z,3.87
2017-07-12T05:31:40.972Z,3.63
2017-07-12T05:34:14.554Z,3.73
2017-07-12T05:36:48.153Z,4.30
2017-07-12T05:39:21.755Z,3.23
2017-07-12T05:41:56.066Z,3.53
2017-07-12T05:44:29.874Z,3.73
2017-07-12T05:47:03.485Z,3.80
2017-07-12T05:49:37.878Z,4.00
2017-07-12T05:52:11.600Z,4.93
2017-07-12T05:54:45.199Z,6.73
2017-07-12T05:57:20.133Z,6.33
2017-07-12T05:59:53.837Z,7.40
2017-07-12T06:02:27.639Z,7.97
2017-07-12T06:05:01.244Z,8.53
2017-07-12T06:07:35.731Z,9.10
2017-07-12T06:10:09.248Z,9.10
2017-07-12T06:12:42.849Z,9.17
2017-07-12T06:15:17.363Z,10.00
2017-07-12T06:17:52.446Z,8.43
2017-07-12T06:20:26.003Z,8.63
2017-07-12T06:22:59.606Z,8.20
2017-07-12T06:25:33.210Z,8.20
2017-07-12T06:28:06.915Z,7.90
2017-07-12T06:30:40.619Z,7.70
2017-07-12T06:33:14.934Z,7.97
2017-07-12T06:35:48.640Z,7.77
2017-07-12T06:38:22.435Z,7.77
2017-07-12T06:40:56.037Z,8.57
2017-07-12T06:43:29.743Z,8.73
2017-07-12T06:46:03.546Z,8.50
2017-07-12T06:48:37.052Z,6.83
2017-07-12T06:51:11.435Z,8.23
2017-07-12T06:53:45.026Z,8.50
2017-07-12T06:56:18.767Z,7.40
2017-07-12T06:58:52.971Z,7.37
2017-07-12T07:01:26.583Z,8.07
2017-07-12T07:04:00.903Z,7.00
2017-07-12T07:06:34.802Z,6.53
2017-07-12T07:09:08.263Z,6.40
2017-07-12T07:11:42.007Z,7.20
2017-07-12T07:14:15.508Z,5.43
2017-07-12T07:16:49.203Z,4.67
2017-07-12T07:19:22.752Z,4.43
2017-07-12T07:21:57.122Z,4.60
2017-07-12T07:24:30.826Z,4.47
2017-07-12T07:27:04.614Z,3.20
2017-07-12T07:29:38.744Z,3.70
2017-07-12T07:32:13.166Z,2.80
2017-07-12T07:34:46.651Z,2.83
2017-07-12T07:37:20.372Z,2.70
2017-07-12T07:39:54.271Z,2.90
2017-07-12T07:42:28.062Z,3.13
2017-07-12T07:45:01.783Z,2.87
2017-07-12T07:47:35.383Z,2.63
2017-07-12T07:50:08.988Z,2.63
2017-07-12T07:52:42.680Z,2.63
2017-07-12T07:55:16.594Z,3.27
2017-07-12T07:57:51.108Z,2.60
2017-07-12T08:00:24.819Z,2.20
2017-07-12T08:02:59.133Z,2.43
2017-07-12T08:05:32.891Z,2.30
2017-07-12T08:08:06.651Z,2.83
2017-07-12T08:10:40.239Z,2.60
2017-07-12T08:13:13.838Z,2.50
2017-07-12T08:15:48.255Z,3.13
2017-07-12T08:18:22.032Z,2.20
2017-07-12T08:20:57.042Z,2.53
2017-07-12T08:23:31.406Z,2.30
2017-07-12T08:26:05.128Z,2.40
2017-07-12T08:28:38.819Z,2.00
2017-07-12T08:31:12.315Z,2.40
2017-07-12T08:33:47.350Z,2.10
2017-07-12T08:36:21.042Z,2.17
2017-07-12T08:38:54.615Z,2.20
2017-07-12T08:41:28.191Z,1.93
2017-07-12T08:44:02.658Z,2.23
2017-07-12T08:46:36.264Z,2.13
2017-07-12T08:49:09.762Z,2.17
2017-07-12T08:51:43.886Z,1.80
2017-07-12T08:54:17.688Z,2.17
2017-07-12T08:56:52.054Z,2.50
2017-07-12T08:59:25.913Z,2.37
2017-07-12T09:01:59.615Z,2.00
2017-07-12T09:04:33.210Z,1.90
2017-07-12T09:07:06.676Z,2.10
2017-07-12T09:09:41.226Z,2.07
2017-07-12T09:12:14.783Z,2.00
2017-07-12T09:14:48.277Z,1.87
2017-07-12T09:17:22.952Z,2.30
2017-07-12T09:19:57.370Z,1.80
2017-07-12T09:22:31.182Z,1.73
2017-07-12T09:35:19.386Z,1.80
2017-07-12T09:37:53.019Z,2.10
2017-07-12T09:40:26.887Z,2.20
2017-07-12T09:43:00.491Z,1.87
2017-07-12T09:45:34.190Z,2.20
2017-07-12T09:48:07.787Z,2.60
2017-07-12T09:50:41.594Z,2.20
2017-07-12T09:53:15.147Z,2.47
2017-07-12T09:55:48.893Z,2.80
2017-07-12T09:58:22.848Z,2.63
2017-07-12T10:00:56.399Z,2.80
2017-07-12T10:03:30.005Z,2.70
2017-07-12T10:06:04.430Z,2.90
2017-07-12T10:08:38.230Z,2.20
2017-07-12T10:11:11.830Z,2.80
2017-07-12T10:13:46.138Z,2.60
2017-07-12T10:16:23.607Z,2.50
2017-07-12T10:18:57.339Z,2.70
2017-07-12T10:21:31.042Z,3.03
2017-07-12T10:24:04.747Z,3.30
2017-07-12T10:26:38.456Z,2.50
2017-07-12T10:29:12.046Z,2.40
2017-07-12T10:31:45.644Z,2.80
2017-07-12T10:34:19.249Z,2.73
2017-07-12T10:36:52.814Z,2.87
2017-07-12T10:39:27.372Z,2.30
2017-07-12T10:42:01.069Z,2.07
2017-07-12T10:44:34.681Z,2.03
2017-07-12T10:47:08.380Z,2.10
2017-07-12T10:49:46.062Z,2.23
2017-07-12T10:52:15.783Z,2.40
2017-07-12T10:54:49.280Z,2.07
2017-07-12T10:57:22.981Z,1.90
2017-07-12T10:59:56.575Z,2.37
2017-07-12T11:02:31.003Z,2.07
2017-07-12T11:05:04.803Z,2.47
2017-07-12T11:07:38.370Z,3.07
2017-07-12T11:10:12.007Z,2.83
2017-07-12T11:12:45.719Z,1.90
2017-07-12T11:15:19.311Z,2.20
2017-07-12T11:17:52.859Z,2.33
2017-07-12T11:20:26.911Z,2.00
2017-07-12T11:23:00.515Z,2.70
2017-07-12T11:25:34.099Z,3.93
2017-07-12T11:28:07.700Z,2.47
2017-07-12T11:30:41.623Z,2.30
2017-07-12T11:33:15.223Z,2.23
2017-07-12T11:35:48.818Z,2.57
2017-07-12T11:38:22.967Z,2.20
2017-07-12T11:40:56.534Z,2.73
2017-07-12T11:43:30.342Z,2.30
2017-07-12T11:46:04.150Z,2.43
2017-07-12T11:48:37.643Z,2.10
2017-07-12T11:51:11.242Z,2.00
2017-07-12T11:53:44.839Z,2.30
2017-07-12T11:56:18.321Z,2.03
2017-07-12T11:58:52.737Z,2.40
2017-07-12T12:01:27.382Z,1.87
2017-07-12T12:04:00.943Z,1.67
2017-07-12T12:06:34.889Z,2.00
2017-07-12T12:09:09.515Z,2.17
2017-07-12T12:11:43.312Z,2.40
2017-07-12T12:14:16.898Z,2.13
2017-07-12T12:16:50.718Z,1.83
2017-07-12T12:19:25.351Z,2.33
2017-07-12T12:21:58.895Z,1.80
2017-07-12T12:24:32.617Z,2.50
2017-07-12T12:27:06.332Z,1.90
2017-07-12T12:29:40.874Z,2.10
2017-07-12T12:32:14.478Z,2.03
2017-07-12T12:34:48.041Z,1.87
2017-07-12T12:37:21.687Z,2.00
2017-07-12T12:39:55.351Z,1.90
2017-07-12T12:42:29.025Z,2.03
2017-07-12T12:45:02.726Z,2.50
2017-07-12T12:47:37.414Z,2.20
2017-07-12T12:50:11.092Z,2.13
2017-07-12T12:52:45.531Z,1.83
2017-07-12T12:55:19.349Z,1.80
2017-07-12T12:57:53.194Z,2.17
2017-07-12T13:00:26.942Z,1.90
2017-07-12T13:03:00.450Z,2.10
2017-07-12T13:05:39.972Z,1.93
2017-07-12T13:08:13.783Z,1.83
2017-07-12T13:10:47.397Z,1.67
2017-07-12T13:13:21.191Z,1.60
2017-07-12T13:15:54.995Z,1.83
2017-07-12T13:18:28.814Z,1.73
2017-07-12T13:21:03.427Z,1.63
2017-07-12T13:23:37.341Z,1.40
2017-07-12T13:26:10.984Z,1.60
2017-07-12T13:28:45.467Z,1.43
2017-07-12T13:31:20.163Z,1.33
2017-07-12T13:33:53.780Z,1.40
2017-07-12T13:36:27.487Z,1.30
2017-07-12T13:39:00.982Z,1.27
2017-07-12T13:41:34.587Z,1.80
2017-07-12T13:44:08.287Z,1.10
2017-07-12T13:46:41.883Z,1.20
2017-07-12T13:49:15.485Z,1.50
2017-07-12T13:51:49.074Z,1.40
2017-07-12T13:54:22.687Z,1.87
2017-07-12T13:56:57.209Z,1.20
2017-07-12T13:59:30.813Z,1.13
2017-07-12T14:02:04.414Z,1.33
2017-07-12T14:04:38.222Z,1.43
2017-07-12T14:07:12.021Z,1.03
2017-07-12T14:09:45.511Z,1.10
2017-07-12T14:12:19.116Z,1.07
2017-07-12T14:14:52.687Z,1.13
2017-07-12T14:17:26.288Z,1.20
2017-07-12T14:20:00.114Z,1.20
2017-07-12T14:22:33.702Z,0.93
2017-07-12T14:25:07.390Z,2.00
2017-07-12T14:27:41.047Z,1.23
2017-07-12T14:30:14.727Z,1.13
2017-07-12T14:32:48.375Z,1.00
2017-07-12T14:35:22.107Z,1.10
2017-07-12T14:37:55.711Z,0.97
2017-07-12T14:40:30.351Z,1.20
2017-07-12T14:43:04.055Z,1.10
2017-07-12T14:45:37.622Z,1.57
2017-07-12T14:48:11.153Z,1.73
2017-07-12T14:50:44.823Z,1.40
2017-07-12T14:53:18.527Z,1.10
2017-07-12T14:55:52.217Z,0.80
2017-07-12T14:58:25.807Z,1.00
2017-07-12T15:00:59.339Z,1.17
2017-07-12T15:03:33.062Z,0.90
2017-07-12T15:06:06.655Z,0.80
2017-07-12T15:08:40.234Z,1.43
2017-07-12T15:11:13.855Z,1.00
2017-07-12T15:13:47.455Z,0.60
2017-07-12T15:16:21.074Z,0.70
2017-07-12T15:18:54.868Z,0.90
2017-07-12T15:21:28.575Z,0.70
2017-07-12T15:24:02.153Z,0.70
2017-07-12T15:26:35.728Z,1.37
2017-07-12T15:29:09.362Z,0.60
2017-07-12T15:31:43.071Z,0.70
2017-07-12T15:34:16.773Z,0.70
2017-07-12T15:36:50.323Z,0.90
2017-07-12T15:39:24.015Z,0.60
2017-07-12T15:41:57.731Z,0.60
2017-07-12T15:44:32.303Z,0.60
2017-07-12T15:47:06.675Z,0.60
2017-07-12T15:49:40.315Z,0.60
2017-07-12T15:52:13.926Z,0.50
2017-07-12T15:54:47.519Z,0.70
2017-07-12T15:57:21.175Z,0.50
2017-07-12T15:59:54.821Z,0.60
2017-07-12T16:02:28.581Z,0.60
2017-07-12T16:05:02.093Z,0.60
2017-07-12T16:07:35.691Z,0.60
2017-07-12T16:10:10.143Z,0.60
2017-07-12T16:12:43.752Z,0.80
2017-07-12T16:15:17.339Z,2.33
2017-07-12T16:17:50.876Z,1.90
2017-07-12T16:20:24.543Z,1.00
2017-07-12T16:22:58.244Z,0.70
2017-07-12T16:25:31.942Z,0.80
2017-07-12T16:28:05.647Z,0.50
2017-07-12T16:30:39.123Z,0.60
2017-07-12T16:33:12.692Z,0.70
2017-07-12T16:35:46.452Z,0.60
2017-07-12T16:38:20.157Z,0.80
2017-07-12T16:40:53.639Z,0.70
2017-07-12T16:43:27.211Z,0.60
2017-07-12T16:46:00.846Z,5.53
2017-07-12T16:48:34.555Z,5.90
2017-07-12T16:51:08.379Z,2.27
2017-07-12T16:53:42.135Z,0.80
2017-07-12T16:56:15.895Z,0.97
2017-07-12T16:58:49.567Z,0.97
2017-07-12T17:01:23.479Z,1.30
2017-07-12T17:03:57.251Z,1.00
2017-07-12T17:06:31.382Z,0.97
2017-07-12T17:09:04.995Z,0.90
2017-07-12T17:11:38.598Z,1.00
2017-07-12T17:14:12.142Z,1.10
2017-07-12T17:16:46.511Z,0.90
2017-07-12T17:19:20.183Z,1.00
2017-07-12T17:21:54.024Z,0.90
2017-07-12T17:24:27.624Z,0.87
2017-07-12T17:27:01.323Z,0.83
2017-07-12T17:29:34.823Z,0.83
2017-07-12T17:32:09.071Z,0.80
2017-07-12T17:34:42.683Z,0.83
2017-07-12T17:37:16.373Z,1.00
2017-07-12T17:39:49.847Z,1.03
2017-07-12T17:42:23.392Z,0.90
2017-07-12T17:44:57.022Z,0.90
2017-07-12T17:47:30.875Z,0.83
2017-07-12T17:50:04.523Z,0.90
2017-07-12T17:52:38.087Z,1.40
2017-07-12T17:55:11.584Z,1.93
2017-07-12T17:57:45.290Z,2.03
2017-07-12T18:00:18.811Z,0.90
2017-07-12T18:02:52.383Z,0.90
2017-07-12T18:05:25.851Z,1.00
2017-07-12T18:07:59.341Z,1.10
2017-07-12T18:10:32.817Z,1.00
2017-07-12T18:13:06.367Z,1.27
2017-07-12T18:15:39.959Z,0.90
2017-07-12T18:18:13.663Z,1.10
2017-07-12T18:20:47.195Z,1.20
2017-07-12T18:23:20.682Z,1.10
2017-07-12T18:25:54.299Z,1.20
2017-07-12T18:28:27.947Z,1.27
2017-07-12T18:31:01.408Z,1.40
2017-07-12T18:33:34.978Z,1.40
2017-07-12T18:36:08.521Z,1.80
2017-07-12T18:38:42.003Z,1.20
2017-07-12T18:41:15.471Z,1.37
2017-07-12T18:43:49.051Z,1.73
2017-07-12T18:46:22.582Z,2.10
2017-07-12T18:48:56.107Z,1.70
2017-07-12T18:51:29.659Z,1.60
2017-07-12T18:54:03.218Z,1.70
2017-07-12T18:56:36.696Z,1.70
2017-07-12T18:59:10.194Z,1.80
2017-07-12T19:01:43.674Z,1.43
2017-07-12T19:04:17.237Z,3.93
2017-07-12T19:06:50.713Z,5.33
2017-07-12T19:09:24.228Z,2.00
2017-07-12T19:11:57.791Z,1.53
2017-07-12T19:14:31.578Z,1.47
2017-07-12T19:17:05.198Z,1.20
2017-07-12T19:19:38.715Z,1.43
2017-07-12T19:22:12.183Z,1.40
2017-07-12T19:24:45.823Z,1.40
2017-07-12T19:27:20.300Z,1.20
2017-07-12T19:29:53.847Z,1.77
2017-07-12T19:32:27.467Z,1.60
2017-07-12T19:35:01.119Z,1.40
2017-07-12T19:37:34.577Z,1.30
2017-07-12T19:40:08.147Z,1.40
2017-07-12T19:42:41.630Z,1.57
2017-07-12T19:45:15.314Z,1.00
2017-07-12T19:47:48.819Z,1.10
2017-07-12T19:50:22.297Z,1.07
2017-07-12T19:52:55.819Z,0.90
2017-07-12T19:55:29.371Z,1.10
2017-07-12T19:58:02.830Z,1.40
2017-07-12T20:00:36.555Z,1.10
2017-07-12T20:03:10.219Z,0.90
2017-07-12T20:05:43.687Z,0.90
2017-07-12T20:08:17.216Z,0.80
2017-07-12T20:10:50.850Z,0.80
2017-07-12T20:13:24.375Z,1.20
2017-07-12T20:15:57.950Z,1.00
2017-07-12T20:18:31.410Z,0.90
2017-07-12T20:21:05.111Z,2.93
2017-07-12T20:23:38.751Z,3.07
2017-07-12T20:26:12.307Z,1.93
2017-07-12T20:28:45.871Z,1.30
2017-07-12T20:31:19.430Z,0.90
2017-07-12T20:33:53.051Z,1.07
2017-07-12T20:36:26.651Z,1.00
2017-07-12T20:39:00.282Z,0.93
2017-07-12T20:41:33.858Z,1.20
2017-07-12T20:44:07.353Z,1.20
2017-07-12T20:46:40.889Z,0.93
2017-07-12T20:49:14.522Z,1.00
2017-07-12T20:51:48.095Z,1.10
2017-07-12T20:54:21.563Z,1.13
2017-07-12T20:56:55.111Z,1.10
2017-07-12T20:59:28.743Z,1.50
2017-07-12T21:02:02.398Z,1.00
2017-07-12T21:04:36.047Z,1.13
2017-07-12T21:07:09.768Z,1.20
2017-07-12T21:09:43.255Z,1.20
2017-07-12T21:12:16.806Z,1.10
2017-07-12T21:14:51.801Z,1.20
2017-07-12T21:17:25.428Z,1.30
2017-07-12T21:19:59.814Z,1.10
2017-07-12T21:22:33.500Z,1.20
2017-07-12T21:25:07.031Z,1.20
2017-07-12T21:27:40.515Z,1.00
2017-07-12T21:30:13.979Z,1.60
2017-07-12T21:32:47.547Z,1.40
2017-07-12T21:35:21.802Z,1.30
2017-07-12T21:37:55.366Z,1.13
2017-07-12T21:40:28.895Z,1.17
2017-07-12T21:43:02.554Z,3.60
2017-07-12T21:45:36.355Z,2.57
2017-07-12T21:48:10.164Z,3.40
2017-07-12T21:50:43.768Z,5.43
2017-07-12T21:53:35.264Z,8.63
2017-07-12T21:56:26.480Z,6.00
2017-07-12T21:59:17.851Z,1.93
2017-07-12T22:02:10.206Z,1.10
2017-07-12T22:05:01.539Z,1.27
2017-07-12T22:07:53.640Z,1.30
2017-07-12T22:10:44.886Z,0.97
2017-07-12T22:13:37.225Z,1.10
2017-07-12T22:16:28.747Z,1.40
2017-07-12T22:19:20.947Z,1.40
2017-07-12T22:22:12.398Z,1.23
2017-07-12T22:25:03.910Z,1.20
2017-07-12T22:27:55.338Z,1.30
2017-07-12T22:30:46.867Z,1.10
2017-07-12T22:33:38.171Z,1.50
2017-07-12T22:36:29.723Z,1.33
2017-07-12T22:39:09.876Z,1.53
2017-07-12T22:41:49.178Z,1.60
2017-07-12T22:44:22.591Z,1.30
2017-07-12T22:46:56.199Z,1.43
2017-07-12T22:49:29.912Z,1.30
2017-07-12T22:52:03.714Z,1.20
2017-07-12T22:54:37.310Z,1.27
2017-07-12T22:57:10.918Z,1.40
2017-07-12T22:59:44.723Z,1.20
2017-07-12T23:02:18.418Z,1.30
2017-07-12T23:04:52.023Z,2.10
2017-07-12T23:07:25.627Z,0.97
2017-07-12T23:10:00.098Z,1.30
2017-07-12T23:12:33.750Z,1.30
2017-07-12T23:15:07.347Z,1.23
2017-07-12T23:17:41.770Z,1.00
2017-07-12T23:20:15.464Z,1.23
2017-07-12T23:22:49.166Z,1.50
2017-07-12T23:25:22.774Z,1.60
2017-07-12T23:27:56.371Z,1.50
2017-07-12T23:30:30.069Z,1.30
2017-07-12T23:33:04.493Z,1.43
2017-07-12T23:35:38.190Z,1.30
2017-07-12T23:38:12.328Z,1.20
2017-07-12T23:40:46.008Z,1.30
2017-07-12T23:43:19.711Z,1.70
2017-07-12T23:45:53.417Z,1.13
2017-07-12T23:48:27.900Z,1.40
2017-07-12T23:51:01.534Z,1.43
2017-07-12T23:53:35.035Z,1.30
2017-07-12T23:56:08.519Z,1.27
2017-07-12T23:58:43.059Z,1.47
